Time;durP1;ratioP1;P1;durP2;ratioP2;P2;SDS_P1;SDS_P2;PMS_P1;PMS_P2;Temp;Humidity;BMP_temperature;BMP_pressure;BME280_temperature;BME280_humidity;BME280_pressure;Samples;Min_cycle;Max_cycle;Signal;HPM_P1;HPM_P2
2023/11/14 00:00:06;;;;;;;0.50;0.40;;;;;;;8.12;100.00;95091.34;107192;1276;138561;-87
2023/11/14 00:02:33;;;;;;;0.60;0.50;;;;;;;8.17;100.00;95086.88;107228;1270;22533;-87
2023/11/14 00:04:59;;;;;;;0.70;0.60;;;;;;;8.25;100.00;95099.01;107265;1270;24201;-87
2023/11/14 00:07:25;;;;;;;0.60;0.40;;;;;;;8.31;100.00;95088.15;107266;1277;137836;-86
2023/11/14 00:09:51;;;;;;;0.30;0.30;;;;;;;8.38;100.00;95094.66;107282;1276;22547;-87
2023/11/14 00:12:20;;;;;;;0.40;0.40;;;;;;;8.44;100.00;95084.82;107280;1274;138286;-87
2023/11/14 00:14:47;;;;;;;0.40;0.40;;;;;;;8.51;100.00;95074.40;107310;1277;22660;-86
2023/11/14 00:17:13;;;;;;;0.70;0.30;;;;;;;8.59;100.00;95076.69;107242;1271;138242;-87
2023/11/14 00:19:39;;;;;;;0.50;0.30;;;;;;;8.67;100.00;95060.56;107313;1277;25040;-87
2023/11/14 00:22:07;;;;;;;0.40;0.30;;;;;;;8.77;100.00;95053.13;107199;1270;24253;-86
2023/11/14 00:24:33;;;;;;;0.80;0.40;;;;;;;8.85;100.00;95057.30;107121;1263;138175;-86
2023/11/14 00:27:00;;;;;;;0.30;0.30;;;;;;;8.92;100.00;95035.95;107357;1270;22583;-86
2023/11/14 00:29:27;;;;;;;0.30;0.30;;;;;;;9.03;100.00;95042.21;107280;1276;138284;-87
2023/11/14 00:31:53;;;;;;;0.90;0.30;;;;;;;9.13;100.00;95042.23;107230;1277;22586;-87
2023/11/14 00:34:20;;;;;;;0.50;0.30;;;;;;;9.18;100.00;95063.14;107247;1276;24327;-87
2023/11/14 00:36:47;;;;;;;0.60;0.30;;;;;;;9.22;100.00;95058.17;106938;1277;139247;-87
2023/11/14 00:39:16;;;;;;;0.20;0.20;;;;;;;9.25;100.00;95056.61;107049;1277;25344;-87
2023/11/14 00:41:46;;;;;;;0.60;0.20;;;;;;;9.28;100.00;95061.19;110156;1276;139146;-87
2023/11/14 00:44:15;;;;;;;0.30;0.20;;;;;;;9.31;100.00;95059.19;110221;1277;22342;-87
2023/11/14 00:46:41;;;;;;;0.20;0.20;;;;;;;9.38;100.00;95072.15;110330;1277;22805;-87
2023/11/14 00:49:07;;;;;;;0.40;0.40;;;;;;;9.43;100.00;95084.42;110158;1277;139197;-87
2023/11/14 00:51:34;;;;;;;1.60;0.40;;;;;;;9.45;100.00;95091.92;107265;1277;24455;-87
2023/11/14 00:54:00;;;;;;;0.80;0.70;;;;;;;9.46;100.00;95089.05;106829;1271;138245;-86
2023/11/14 00:56:26;;;;;;;1.50;0.80;;;;;;;9.45;100.00;95089.41;107254;1276;24330;-87
2023/11/14 00:58:52;;;;;;;0.90;0.20;;;;;;;9.42;100.00;95093.58;107349;1276;23254;-87
2023/11/14 01:01:19;;;;;;;0.20;0.20;;;;;;;9.38;100.00;95100.30;106993;1277;138230;-87
2023/11/14 01:03:45;;;;;;;0.30;0.20;;;;;;;9.35;100.00;95096.05;107264;1277;22591;-87
2023/11/14 01:06:11;;;;;;;0.30;0.20;;;;;;;9.34;100.00;95085.54;106959;1277;138558;-88
2023/11/14 01:08:38;;;;;;;0.90;0.20;;;;;;;9.33;100.00;95088.33;107305;1270;23123;-87
2023/11/14 01:11:04;;;;;;;1.20;0.40;;;;;;;9.38;100.00;95088.78;107261;1276;25398;-87
2023/11/14 01:13:31;;;;;;;0.20;0.20;;;;;;;9.39;100.00;95095.20;107181;1274;138047;-88
2023/11/14 01:15:56;;;;;;;0.60;0.30;;;;;;;9.40;100.00;95102.14;107274;1273;22569;-87
2023/11/14 01:18:22;;;;;;;0.80;0.30;;;;;;;9.42;100.00;95102.77;107219;1274;139094;-87
2023/11/14 01:20:48;;;;;;;0.80;0.30;;;;;;;9.44;100.00;95107.16;107006;1277;24202;-87
2023/11/14 01:23:16;;;;;;;0.70;0.40;;;;;;;9.46;100.00;95111.30;107154;1269;138882;-87
2023/11/14 01:25:43;;;;;;;1.20;0.40;;;;;;;9.48;100.00;95112.80;107336;1276;25326;-86
2023/11/14 01:28:09;;;;;;;0.50;0.30;;;;;;;9.49;100.00;95110.00;107457;1276;23270;-87
2023/11/14 01:30:35;;;;;;;0.90;0.40;;;;;;;9.53;100.00;95131.64;107264;1277;138178;-87
2023/11/14 01:33:01;;;;;;;1.30;0.40;;;;;;;9.56;100.00;95153.48;107337;1278;23153;-87
2023/11/14 01:35:27;;;;;;;0.70;0.60;;;;;;;9.59;100.00;95151.77;107161;1273;139046;-87
2023/11/14 01:37:53;;;;;;;0.60;0.40;;;;;;;9.58;100.00;95188.16;107274;1276;24904;-86
2023/11/14 01:40:19;;;;;;;0.70;0.40;;;;;;;9.56;100.00;95227.46;107313;1276;22552;-87
2023/11/14 01:42:45;;;;;;;1.00;0.50;;;;;;;9.53;100.00;95212.79;107185;1273;138783;-86
2023/11/14 01:45:12;;;;;;;0.40;0.30;;;;;;;9.49;100.00;95207.50;107197;1277;24269;-87
2023/11/14 01:47:39;;;;;;;0.60;0.40;;;;;;;9.50;100.00;95210.20;107196;1273;138301;-87
2023/11/14 01:50:07;;;;;;;1.00;0.80;;;;;;;9.50;100.00;95187.86;107243;1277;23046;-88
2023/11/14 01:52:33;;;;;;;1.00;0.70;;;;;;;9.49;100.00;95212.36;107271;1276;22541;-87
2023/11/14 01:54:58;;;;;;;0.50;0.40;;;;;;;9.49;100.00;95222.06;107075;1276;138220;-87
2023/11/14 01:57:24;;;;;;;0.60;0.40;;;;;;;9.50;100.00;95213.95;107313;1277;22560;-87
2023/11/14 01:59:50;;;;;;;1.30;0.70;;;;;;;9.51;100.00;95207.45;107264;1277;139183;-86
2023/11/14 02:02:17;;;;;;;0.50;0.40;;;;;;;9.49;100.00;95199.04;107091;1277;22567;-87
2023/11/14 02:04:44;;;;;;;0.80;0.40;;;;;;;9.48;100.00;95214.97;107259;1276;22542;-87
2023/11/14 02:07:10;;;;;;;2.30;1.10;;;;;;;9.46;100.00;95210.55;107113;1277;138203;-86
2023/11/14 02:09:36;;;;;;;0.80;0.50;;;;;;;9.46;100.00;95203.84;107362;1273;22545;-87
2023/11/14 02:12:02;;;;;;;0.60;0.40;;;;;;;9.48;100.00;95219.52;107207;1276;138625;-87
2023/11/14 02:14:29;;;;;;;0.70;0.50;;;;;;;9.49;100.00;95227.09;107255;1270;23310;-87
2023/11/14 02:16:55;;;;;;;1.30;0.50;;;;;;;9.51;100.00;95232.23;107263;1277;22557;-86
2023/11/14 02:19:22;;;;;;;0.90;0.70;;;;;;;9.51;100.00;95233.34;108005;1276;138183;-87
2023/11/14 02:21:48;;;;;;;1.40;0.70;;;;;;;9.54;100.00;95240.08;107294;1275;23182;-87
2023/11/14 02:24:18;;;;;;;1.60;0.80;;;;;;;9.57;100.00;95210.66;107149;1278;138785;-87
2023/11/14 02:26:48;;;;;;;1.30;0.90;;;;;;;9.61;100.00;95188.69;107372;1276;22575;-86
2023/11/14 02:29:15;;;;;;;1.50;0.80;;;;;;;9.66;100.00;95204.79;107270;1275;138461;-86
2023/11/14 02:31:42;;;;;;;1.80;1.00;;;;;;;9.72;100.00;95195.38;108238;1277;24222;-86
2023/11/14 02:34:09;;;;;;;1.40;1.00;;;;;;;9.75;100.00;95174.33;107417;1270;23190;-87
2023/11/14 02:36:37;;;;;;;1.70;1.00;;;;;;;9.76;100.00;95143.60;107322;1273;138766;-86
2023/11/14 02:39:04;;;;;;;1.50;1.00;;;;;;;9.77;100.00;95131.33;108693;1270;22581;-87
2023/11/14 02:41:30;;;;;;;3.60;1.00;;;;;;;9.79;100.00;95184.55;107148;1276;138866;-87
2023/11/14 02:44:00;;;;;;;1.80;0.90;;;;;;;9.81;100.00;95174.92;107243;1277;22534;-88
2023/11/14 02:46:26;;;;;;;0.80;0.60;;;;;;;9.83;100.00;95158.91;107221;1277;22538;-86
2023/11/14 02:48:52;;;;;;;1.10;0.60;;;;;;;9.83;100.00;95173.84;107125;1277;138208;-88
2023/11/14 02:51:18;;;;;;;2.20;0.90;;;;;;;9.82;100.00;95190.00;107231;1277;22549;-87
2023/11/14 02:53:44;;;;;;;3.50;1.20;;;;;;;9.81;100.00;95196.87;107004;1277;138881;-86
2023/11/14 02:56:10;;;;;;;1.60;1.00;;;;;;;9.80;100.00;95198.44;107266;1276;22548;-87
2023/11/14 02:58:36;;;;;;;1.40;1.10;;;;;;;9.78;100.00;95188.95;107303;1270;24335;-86
2023/11/14 03:01:03;;;;;;;2.00;0.70;;;;;;;9.78;100.00;95165.01;107174;1276;138176;-87
2023/11/14 03:03:29;;;;;;;1.10;0.70;;;;;;;9.77;100.00;95170.16;107311;1270;22546;-87
2023/11/14 03:05:56;;;;;;;1.60;0.80;;;;;;;9.77;100.00;95177.80;107084;1277;138394;-87
2023/11/14 03:08:22;;;;;;;1.70;0.90;;;;;;;9.75;100.00;95191.94;107265;1276;24209;-86
2023/11/14 03:10:48;;;;;;;3.20;1.10;;;;;;;9.71;100.00;95199.97;107245;1276;22775;-87
2023/11/14 03:13:15;;;;;;;2.10;1.00;;;;;;;9.68;100.00;95212.04;107157;1277;138319;-87
2023/11/14 03:15:41;;;;;;;2.10;0.70;;;;;;;9.65;100.00;95221.18;107221;1276;22992;-86
2023/11/14 03:18:08;;;;;;;1.40;0.60;;;;;;;9.62;100.00;95224.44;107192;1269;138366;-87
2023/11/14 03:20:34;;;;;;;1.20;0.80;;;;;;;9.62;100.00;95225.59;107200;1277;22536;-86
2023/11/14 03:23:00;;;;;;;0.90;0.70;;;;;;;9.61;100.00;95227.34;107250;1270;22611;-87
2023/11/14 03:25:25;;;;;;;2.70;1.00;;;;;;;9.62;100.00;95229.14;107152;1271;138098;-86
2023/11/14 03:27:51;;;;;;;1.20;0.70;;;;;;;9.63;100.00;95241.14;107260;1270;24388;-87
2023/11/14 03:30:19;;;;;;;2.10;1.10;;;;;;;9.66;100.00;95248.04;107164;1276;138164;-86
2023/11/14 03:32:45;;;;;;;1.80;1.20;;;;;;;9.69;100.00;95253.30;107255;1271;22543;-87
2023/11/14 03:35:11;;;;;;;1.80;1.00;;;;;;;9.71;100.00;95256.76;106953;1277;138465;-87
2023/11/14 03:37:37;;;;;;;1.90;1.20;;;;;;;9.72;100.00;95250.73;107249;1270;24298;-87
2023/11/14 03:40:04;;;;;;;1.60;1.10;;;;;;;9.73;100.00;95258.18;107245;1276;22664;-87
2023/11/14 03:42:33;;;;;;;1.10;0.70;;;;;;;9.74;100.00;95258.17;106937;1277;138249;-87
2023/11/14 03:44:59;;;;;;;2.20;0.90;;;;;;;9.76;100.00;95266.73;108632;1265;24247;-86
2023/11/14 03:47:25;;;;;;;1.60;0.80;;;;;;;9.79;100.00;95260.30;107095;1277;138355;-87
2023/11/14 03:49:51;;;;;;;1.00;0.80;;;;;;;9.81;100.00;95260.81;107279;1269;24221;-87
2023/11/14 03:52:17;;;;;;;1.70;0.80;;;;;;;9.82;100.00;95262.80;107257;1277;22538;-87
2023/11/14 03:54:44;;;;;;;1.40;0.80;;;;;;;9.83;100.00;95273.30;107142;1277;138582;-87
2023/11/14 03:57:10;;;;;;;0.90;0.70;;;;;;;9.83;100.00;95270.41;107240;1276;22576;-87
2023/11/14 03:59:36;;;;;;;1.20;0.60;;;;;;;9.84;100.00;95277.08;107127;1274;138356;-86
2023/11/14 04:02:02;;;;;;;0.60;0.50;;;;;;;9.85;100.00;95275.92;107227;1277;24042;-87
2023/11/14 04:04:28;;;;;;;1.90;0.80;;;;;;;9.86;100.00;95287.77;107223;1277;23054;-87
2023/11/14 04:06:55;;;;;;;0.80;0.60;;;;;;;9.86;100.00;95292.96;107149;1276;138694;-86
2023/11/14 04:09:21;;;;;;;1.50;0.70;;;;;;;9.85;100.00;95293.52;107273;1276;24242;-86
2023/11/14 04:11:48;;;;;;;1.40;0.70;;;;;;;9.87;100.00;95291.95;107133;1256;139004;-87
2023/11/14 04:14:15;;;;;;;2.00;0.70;;;;;;;9.86;100.00;95295.20;107224;1272;22541;-86
2023/11/14 04:16:41;;;;;;;2.30;0.70;;;;;;;9.86;100.00;95300.49;107224;1277;24233;-87
2023/11/14 04:19:07;;;;;;;1.30;0.80;;;;;;;9.87;100.00;95287.77;107054;1277;138851;-87
2023/11/14 04:21:33;;;;;;;1.20;1.10;;;;;;;9.84;100.00;95283.95;107171;1270;22593;-87
2023/11/14 04:23:59;;;;;;;1.90;0.60;;;;;;;9.82;100.00;95285.98;107211;1276;138864;-86
2023/11/14 04:26:25;;;;;;;1.60;0.50;;;;;;;9.80;100.00;95288.88;107262;1276;22578;-86
2023/11/14 04:28:51;;;;;;;1.60;0.70;;;;;;;9.77;100.00;95297.58;107076;1273;22547;-87
2023/11/14 04:31:17;;;;;;;1.30;0.60;;;;;;;9.73;100.00;95295.69;107133;1277;138330;-86
2023/11/14 04:33:43;;;;;;;1.10;0.60;;;;;;;9.70;100.00;95292.08;107225;1277;22541;-87
2023/11/14 04:36:09;;;;;;;0.70;0.60;;;;;;;9.68;100.00;95301.86;106989;1277;139811;-86
2023/11/14 04:38:36;;;;;;;1.30;0.60;;;;;;;9.66;100.00;95304.21;107222;1275;25217;-86
2023/11/14 04:41:02;;;;;;;1.10;0.80;;;;;;;9.62;100.00;95311.49;107260;1276;22544;-87
2023/11/14 04:43:29;;;;;;;2.00;0.80;;;;;;;9.60;100.00;95314.33;107182;1274;138655;-87
2023/11/14 04:45:55;;;;;;;0.90;0.60;;;;;;;9.58;100.00;95316.98;107207;1267;22547;-87
2023/11/14 04:48:21;;;;;;;1.10;0.70;;;;;;;9.56;100.00;95320.13;107171;1273;138441;-87
2023/11/14 04:50:48;;;;;;;0.90;0.70;;;;;;;9.56;100.00;95322.92;107300;1276;22571;-86
2023/11/14 04:53:13;;;;;;;1.50;1.00;;;;;;;9.54;100.00;95313.20;107150;1276;138348;-87
2023/11/14 04:55:39;;;;;;;2.10;0.90;;;;;;;9.54;100.00;95315.64;107271;1276;25452;-86
2023/11/14 04:58:08;;;;;;;2.00;0.90;;;;;;;9.54;100.00;95324.80;107266;1270;25212;-87
2023/11/14 05:00:34;;;;;;;1.70;0.90;;;;;;;9.54;100.00;95332.08;107161;1277;139136;-86
2023/11/14 05:03:05;;;;;;;2.70;0.70;;;;;;;9.54;100.00;95336.74;107088;1277;22558;-87
2023/11/14 05:05:32;;;;;;;1.20;0.50;;;;;;;9.55;100.00;95341.23;107198;1276;139092;-87
2023/11/14 05:07:58;;;;;;;1.30;0.70;;;;;;;9.55;100.00;95346.75;107234;1276;22544;-86
2023/11/14 05:10:24;;;;;;;1.40;0.80;;;;;;;9.57;100.00;95345.52;107253;1277;22633;-87
2023/11/14 05:12:51;;;;;;;1.80;0.70;;;;;;;9.57;100.00;95349.23;106981;1270;139033;-86
2023/11/14 05:15:17;;;;;;;1.10;0.80;;;;;;;9.59;100.00;95355.96;107289;1277;23885;-87
2023/11/14 05:17:43;;;;;;;1.30;0.70;;;;;;;9.59;100.00;95357.80;107160;1277;138309;-87
2023/11/14 05:20:10;;;;;;;1.70;0.90;;;;;;;9.59;100.00;95366.34;107291;1276;22653;-87
2023/11/14 05:22:38;;;;;;;2.70;0.90;;;;;;;9.58;100.00;95365.73;107099;1277;23128;-86
2023/11/14 05:25:05;;;;;;;1.50;0.80;;;;;;;9.58;100.00;95371.24;107151;1270;138185;-86
2023/11/14 05:27:31;;;;;;;8.70;3.00;;;;;;;9.59;100.00;95372.14;107253;1272;23159;-86
2023/11/14 05:29:57;;;;;;;19.70;7.60;;;;;;;9.61;100.00;95385.00;106970;1271;139182;-86
2023/11/14 05:32:23;;;;;;;20.50;5.60;;;;;;;9.61;100.00;95381.48;107295;1276;22527;-86
2023/11/14 05:34:49;;;;;;;19.50;6.20;;;;;;;9.61;100.00;95374.98;107224;1276;24446;-86
2023/11/14 05:37:15;;;;;;;12.50;4.30;;;;;;;9.61;99.98;95374.82;107150;1261;139010;-87
2023/11/14 05:39:41;;;;;;;4.90;2.00;;;;;;;9.60;99.86;95378.65;107281;1271;24260;-86
2023/11/14 05:42:07;;;;;;;29.00;11.60;;;;;;;9.58;99.85;95390.23;106849;1277;138375;-86
2023/11/14 05:44:33;;;;;;;4.30;2.00;;;;;;;9.57;99.93;95390.08;107188;1277;22657;-87
2023/11/14 05:46:59;;;;;;;5.40;2.60;;;;;;;9.54;99.98;95391.11;107024;1277;22552;-87
2023/11/14 05:49:27;;;;;;;4.60;2.00;;;;;;;9.51;99.94;95401.02;107108;1276;137823;-87
2023/11/14 05:51:53;;;;;;;25.80;10.60;;;;;;;9.49;99.99;95412.98;107191;1276;22574;-86
2023/11/14 05:54:19;;;;;;;6.40;3.10;;;;;;;9.45;100.00;95418.77;107143;1277;138429;-86
2023/11/14 05:56:44;;;;;;;40.20;16.70;;;;;;;9.44;100.00;95419.48;107079;1265;22558;-86
2023/11/14 05:59:11;;;;;;;18.90;7.00;;;;;;;9.42;100.00;95422.17;107134;1272;138684;-88
2023/11/14 06:01:36;;;;;;;6.20;2.80;;;;;;;9.39;100.00;95420.55;107274;1265;22562;-86
2023/11/14 06:04:03;;;;;;;13.70;5.80;;;;;;;9.36;100.00;95409.98;107258;1276;23176;-86
2023/11/14 06:06:28;;;;;;;6.20;2.40;;;;;;;9.32;100.00;95400.91;107174;1276;138904;-87
2023/11/14 06:08:54;;;;;;;6.90;2.50;;;;;;;9.29;100.00;95409.22;107215;1277;22546;-86
2023/11/14 06:11:21;;;;;;;24.70;10.10;;;;;;;9.28;100.00;95419.06;107164;1254;139437;-87
2023/11/14 06:13:47;;;;;;;10.70;4.50;;;;;;;9.26;100.00;95427.27;107309;1277;22669;-86
2023/11/14 06:16:15;;;;;;;10.60;4.00;;;;;;;9.24;99.90;95437.58;107247;1270;24369;-86
2023/11/14 06:18:43;;;;;;;39.60;16.00;;;;;;;9.23;100.00;95438.42;107144;1276;138314;-87
2023/11/14 06:21:10;;;;;;;22.40;7.10;;;;;;;9.22;100.00;95442.69;107280;1276;22734;-86
2023/11/14 06:23:37;;;;;;;11.00;4.20;;;;;;;9.20;100.00;95449.34;106876;1277;138692;-87
2023/11/14 06:26:03;;;;;;;13.40;4.10;;;;;;;9.19;100.00;95452.24;107223;1272;24209;-87
2023/11/14 06:28:29;;;;;;;11.50;3.70;;;;;;;9.17;100.00;95452.77;107220;1270;22636;-86
2023/11/14 06:30:56;;;;;;;6.00;2.60;;;;;;;9.17;100.00;95466.89;107177;1276;138486;-86
2023/11/14 06:33:22;;;;;;;7.00;2.60;;;;;;;9.16;100.00;95474.73;107076;1277;25736;-86
2023/11/14 06:35:48;;;;;;;5.70;1.80;;;;;;;9.13;99.85;95475.81;107152;1277;138715;-87
2023/11/14 06:38:14;;;;;;;6.10;2.10;;;;;;;9.12;100.00;95481.02;107294;1273;24270;-87
2023/11/14 06:40:40;;;;;;;5.10;2.20;;;;;;;9.09;99.97;95491.32;107245;1277;22539;-87
2023/11/14 06:43:09;;;;;;;7.00;2.50;;;;;;;9.08;100.00;95490.64;107180;1277;138090;-87
2023/11/14 06:45:35;;;;;;;12.90;5.00;;;;;;;9.08;100.00;95486.70;107316;1277;22540;-87
2023/11/14 06:48:03;;;;;;;6.40;3.30;;;;;;;9.09;99.97;95496.75;107196;1276;138408;-87
2023/11/14 06:50:29;;;;;;;6.60;2.10;;;;;;;9.09;99.77;95503.28;107248;1277;22548;-87
2023/11/14 06:52:55;;;;;;;4.80;2.70;;;;;;;9.09;99.68;95509.98;107258;1276;24233;-87
2023/11/14 06:55:22;;;;;;;3.90;1.40;;;;;;;9.10;99.51;95521.35;106950;1277;138085;-87
2023/11/14 06:57:48;;;;;;;12.60;4.30;;;;;;;9.08;99.21;95525.17;107262;1276;22540;-86
2023/11/14 07:00:15;;;;;;;4.80;1.70;;;;;;;9.07;98.98;95533.02;106998;1277;138930;-87
2023/11/14 07:02:42;;;;;;;6.60;3.20;;;;;;;9.07;98.34;95534.92;107261;1270;23028;-87
2023/11/14 07:05:09;;;;;;;6.50;2.80;;;;;;;9.09;98.53;95530.75;107113;1277;139081;-87
2023/11/14 07:07:39;;;;;;;4.90;1.80;;;;;;;9.10;98.44;95527.33;110181;1278;22900;-87
2023/11/14 07:10:08;;;;;;;5.10;1.40;;;;;;;9.12;98.31;95531.30;110361;1277;22183;-88
2023/11/14 07:12:34;;;;;;;2.60;1.40;;;;;;;9.14;98.01;95533.42;110225;1276;138896;-87
2023/11/14 07:15:00;;;;;;;13.40;4.90;;;;;;;9.15;98.24;95532.19;110219;1264;22248;-87
2023/11/14 07:17:26;;;;;;;9.60;3.80;;;;;;;9.18;97.84;95531.48;110280;1276;139093;-87
2023/11/14 07:19:54;;;;;;;4.80;1.50;;;;;;;9.21;97.76;95525.08;110377;1270;22259;-87
2023/11/14 07:22:19;;;;;;;5.30;1.10;;;;;;;9.21;97.68;95532.09;110418;1265;22218;-87
2023/11/14 07:24:45;;;;;;;2.80;1.30;;;;;;;9.23;97.76;95532.89;110170;1277;138295;-86
2023/11/14 07:27:11;;;;;;;4.80;1.60;;;;;;;9.25;97.83;95532.48;107084;1277;23912;-87
2023/11/14 07:29:37;;;;;;;3.40;1.40;;;;;;;9.27;97.54;95532.04;107210;1276;138919;-87
2023/11/14 07:32:03;;;;;;;15.10;6.30;;;;;;;9.31;97.65;95528.35;107233;1276;25179;-86
2023/11/14 07:34:29;;;;;;;4.50;2.40;;;;;;;9.32;97.72;95527.07;107275;1273;23252;-86
2023/11/14 07:36:55;;;;;;;4.30;1.80;;;;;;;9.34;97.62;95523.93;107228;1275;138137;-86
2023/11/14 07:39:23;;;;;;;7.00;2.40;;;;;;;9.34;97.21;95521.86;107277;1277;23890;-86
2023/11/14 07:41:50;;;;;;;6.90;3.90;;;;;;;9.33;97.24;95525.96;107013;1277;138861;-86
2023/11/14 07:44:17;;;;;;;7.10;2.70;;;;;;;9.33;97.14;95530.42;107263;1277;25304;-87
2023/11/14 07:46:44;;;;;;;4.00;2.00;;;;;;;9.33;97.21;95532.30;107281;1276;24363;-86
2023/11/14 07:49:11;;;;;;;9.90;3.40;;;;;;;9.34;96.84;95541.39;107107;1277;138066;-86
2023/11/14 07:51:37;;;;;;;5.90;2.30;;;;;;;9.36;96.77;95544.30;107246;1275;23256;-86
2023/11/14 07:54:03;;;;;;;5.40;2.00;;;;;;;9.38;97.29;95545.79;107195;1272;138521;-86
2023/11/14 07:56:29;;;;;;;5.40;3.30;;;;;;;9.38;97.18;95551.25;107273;1276;22541;-86
2023/11/14 07:58:55;;;;;;;7.00;3.40;;;;;;;9.38;97.24;95552.69;107277;1272;22583;-86
2023/11/14 08:01:20;;;;;;;7.50;2.80;;;;;;;9.38;96.82;95552.89;107220;1276;138367;-87
2023/11/14 08:03:48;;;;;;;4.80;2.40;;;;;;;9.38;96.46;95550.10;107321;1277;24678;-86
2023/11/14 08:06:14;;;;;;;5.70;2.80;;;;;;;9.39;96.58;95549.23;107772;1277;138023;-86
2023/11/14 08:08:42;;;;;;;7.10;2.20;;;;;;;9.41;96.93;95547.06;107290;1277;22532;-86
2023/11/14 08:11:08;;;;;;;5.00;2.00;;;;;;;9.44;96.75;95549.96;107087;1272;138397;-86
2023/11/14 08:13:35;;;;;;;5.00;1.70;;;;;;;9.47;96.86;95548.94;107236;1277;22570;-87
2023/11/14 08:16:02;;;;;;;3.10;1.50;;;;;;;9.48;96.20;95551.30;107234;1272;22571;-86
2023/11/14 08:18:28;;;;;;;6.50;1.80;;;;;;;9.50;96.34;95549.39;107403;1277;138066;-86
2023/11/14 08:20:54;;;;;;;5.90;2.40;;;;;;;9.53;96.33;95548.66;107230;1277;24247;-87
2023/11/14 08:23:20;;;;;;;8.30;2.80;;;;;;;9.56;95.82;95551.30;107124;1265;138164;-86
2023/11/14 08:25:46;;;;;;;6.00;1.50;;;;;;;9.59;95.00;95555.66;107272;1272;22548;-86
2023/11/14 08:28:13;;;;;;;5.30;1.90;;;;;;;9.60;94.91;95560.84;107271;1276;23208;-87
2023/11/14 08:30:40;;;;;;;7.60;1.70;;;;;;;9.61;94.63;95561.23;110239;1267;138893;-87
2023/11/14 08:33:07;;;;;;;3.00;1.20;;;;;;;9.62;94.80;95558.89;110190;1277;22243;-87
2023/11/14 08:35:33;;;;;;;5.60;1.70;;;;;;;9.64;94.59;95557.85;110266;1277;140078;-88
2023/11/14 08:37:59;;;;;;;4.50;1.20;;;;;;;9.66;93.47;95558.58;109781;1277;512403;-88
2023/11/14 08:40:27;;;;;;;7.00;2.00;;;;;;;9.68;92.47;95554.77;110378;1276;23026;-87
2023/11/14 08:42:53;;;;;;;4.80;1.30;;;;;;;9.71;92.05;95557.33;110039;1275;138610;-87
2023/11/14 08:45:19;;;;;;;5.40;1.60;;;;;;;9.74;90.81;95555.67;110410;1276;22270;-87
2023/11/14 08:47:45;;;;;;;6.50;1.50;;;;;;;9.76;91.15;95555.52;110232;1272;138907;-85
2023/11/14 08:50:12;;;;;;;5.20;1.20;;;;;;;9.77;90.92;95553.34;110389;1277;22209;-85
2023/11/14 08:52:40;;;;;;;5.70;1.30;;;;;;;9.78;90.87;95554.49;108352;1276;25478;-89
2023/11/14 08:55:06;;;;;;;5.40;1.60;;;;;;;9.79;89.45;95558.33;110180;1277;138201;-87
2023/11/14 08:57:32;;;;;;;5.10;1.30;;;;;;;9.82;90.38;95566.39;110162;1277;22335;-87
2023/11/14 08:59:59;;;;;;;6.90;1.40;;;;;;;9.85;89.38;95567.46;110221;1276;138623;-87
2023/11/14 09:02:25;;;;;;;5.70;1.50;;;;;;;9.88;90.14;95568.90;109413;1271;24220;-87
2023/11/14 09:04:51;;;;;;;10.50;4.30;;;;;;;9.92;90.35;95566.00;107233;1276;22629;-87
2023/11/14 09:07:17;;;;;;;6.80;2.20;;;;;;;9.94;88.93;95574.36;107180;1272;138893;-86
2023/11/14 09:09:44;;;;;;;6.20;2.20;;;;;;;9.94;89.67;95576.95;107276;1277;22639;-86
2023/11/14 09:12:11;;;;;;;9.60;5.60;;;;;;;9.95;90.02;95575.05;106945;1279;138047;-86
2023/11/14 09:14:37;;;;;;;9.70;5.60;;;;;;;9.97;88.95;95578.77;107243;1277;24238;-86
2023/11/14 09:17:06;;;;;;;6.10;2.50;;;;;;;10.00;89.11;95582.51;107285;1273;25352;-87
2023/11/14 09:19:32;;;;;;;12.00;6.80;;;;;;;10.01;88.43;95581.40;107255;1277;24056;-86
2023/11/14 09:22:00;;;;;;;11.00;4.20;;;;;;;10.01;88.53;95580.71;107265;1276;25281;-87
2023/11/14 09:24:25;;;;;;;4.10;1.50;;;;;;;10.02;89.11;95584.11;107241;1271;138412;-86
2023/11/14 09:26:51;;;;;;;8.60;2.40;;;;;;;10.01;88.49;95583.79;107213;1277;22773;-86
2023/11/14 09:29:17;;;;;;;11.00;4.90;;;;;;;10.02;88.67;95587.02;107191;1277;138976;-87
2023/11/14 09:31:43;;;;;;;7.80;2.10;;;;;;;10.03;88.47;95593.45;107248;1267;22552;-88
2023/11/14 09:34:09;;;;;;;11.10;3.90;;;;;;;10.03;88.48;95595.36;107154;1277;22535;-87
2023/11/14 09:36:35;;;;;;;6.20;2.30;;;;;;;10.04;87.84;95601.55;107120;1276;138453;-87
2023/11/14 09:39:01;;;;;;;9.00;2.60;;;;;;;10.05;87.23;95602.20;107308;1274;24267;-87
2023/11/14 09:41:27;;;;;;;7.90;2.10;;;;;;;10.04;87.71;95603.99;107146;1277;138855;-87
2023/11/14 09:43:53;;;;;;;6.10;1.80;;;;;;;10.05;87.25;95603.20;107111;1276;22567;-87
2023/11/14 09:46:19;;;;;;;6.50;2.90;;;;;;;10.05;87.62;95598.84;107097;1277;25080;-87
2023/11/14 09:48:45;;;;;;;4.80;1.60;;;;;;;10.04;87.23;95599.84;107178;1276;139233;-87
2023/11/14 09:51:12;;;;;;;9.10;2.10;;;;;;;10.04;87.65;95599.65;107229;1277;22549;-87
2023/11/14 09:53:40;;;;;;;11.20;4.20;;;;;;;10.05;88.25;95604.11;106975;1270;138398;-87
2023/11/14 09:56:07;;;;;;;10.40;4.80;;;;;;;10.08;88.17;95608.17;107267;1277;22534;-87
2023/11/14 09:58:33;;;;;;;4.40;1.30;;;;;;;10.09;87.35;95599.86;107145;1276;22526;-87
2023/11/14 10:01:00;;;;;;;5.50;1.80;;;;;;;10.11;88.04;95605.58;107101;1277;138176;-87
2023/11/14 10:03:28;;;;;;;4.20;1.60;;;;;;;10.13;88.24;95606.14;107304;1274;22573;-86
2023/11/14 10:05:55;;;;;;;5.00;1.70;;;;;;;10.14;87.17;95598.59;107197;1277;138251;-88
2023/11/14 10:08:21;;;;;;;4.50;1.80;;;;;;;10.11;87.08;95596.23;107253;1278;24231;-87
2023/11/14 10:11:03;;;;;;;7.10;2.10;;;;;;;10.10;87.71;95603.38;107259;1276;22557;-87
2023/11/14 10:13:30;;;;;;;5.50;2.60;;;;;;;10.09;87.39;95595.46;107219;1276;138560;-87
2023/11/14 10:16:17;;;;;;;5.70;2.40;;;;;;;10.11;88.53;95592.08;107308;1275;22520;-86
2023/11/14 10:18:44;;;;;;;5.70;2.80;;;;;;;10.19;89.07;95597.27;107105;1276;138158;-87
2023/11/14 10:21:30;;;;;;;5.40;2.50;;;;;;;10.24;88.90;95595.59;110302;1277;22289;-88
2023/11/14 10:23:57;;;;;;;4.90;2.90;;;;;;;10.29;88.44;95610.18;109943;1277;138808;-88
2023/11/14 10:26:24;;;;;;;5.20;3.00;;;;;;;10.31;88.15;95602.83;110117;1276;22224;-88
2023/11/14 10:28:55;;;;;;;7.60;2.70;;;;;;;10.32;88.35;95582.61;107547;1277;24245;-87
2023/11/14 10:31:38;;;;;;;6.60;2.60;;;;;;;10.32;87.82;95582.58;107143;1276;138402;-87
2023/11/14 10:34:05;;;;;;;19.40;12.90;;;;;;;10.31;88.56;95578.42;107275;1265;25556;-88
2023/11/14 10:36:51;;;;;;;10.80;4.00;;;;;;;10.29;87.89;95576.59;108799;1277;138719;-87
2023/11/14 10:39:18;;;;;;;6.40;1.90;;;;;;;10.26;87.61;95579.02;110366;1277;22217;-88
2023/11/14 10:41:44;;;;;;;12.10;5.50;;;;;;;10.24;87.32;95575.98;110280;1272;138842;-88
2023/11/14 10:44:12;;;;;;;9.80;4.50;;;;;;;10.22;87.43;95565.63;110176;1278;22246;-88
2023/11/14 10:46:48;;;;;;;7.80;2.90;;;;;;;10.26;87.61;95561.28;110094;1272;22308;-87
2023/11/14 10:49:15;;;;;;;6.80;2.00;;;;;;;10.34;88.25;95567.95;110057;1274;139556;-87
2023/11/14 10:51:41;;;;;;;6.80;3.50;;;;;;;10.46;88.41;95588.61;110431;1277;22221;-88
2023/11/14 10:54:08;;;;;;;4.90;2.90;;;;;;;10.54;87.58;95588.00;110076;1272;138973;-87
2023/11/14 10:56:37;;;;;;;5.50;1.50;;;;;;;10.58;87.15;95591.61;107603;1278;25358;-87
2023/11/14 10:59:04;;;;;;;9.40;2.40;;;;;;;10.61;87.66;95588.86;107238;1276;25379;-87
2023/11/14 11:01:32;;;;;;;7.60;2.30;;;;;;;10.65;86.45;95581.02;110264;1277;138234;-85
2023/11/14 11:03:59;;;;;;;5.20;1.80;;;;;;;10.68;86.85;95581.48;110103;1274;22499;-85
2023/11/14 11:06:28;;;;;;;5.20;2.10;;;;;;;10.71;86.22;95578.95;106959;1276;138804;-85
2023/11/14 11:08:54;;;;;;;7.10;3.40;;;;;;;10.75;86.04;95579.02;107286;1277;22534;-87
2023/11/14 11:11:22;;;;;;;7.70;2.30;;;;;;;10.77;85.99;95587.57;107021;1277;138311;-87
2023/11/14 11:13:48;;;;;;;6.10;2.20;;;;;;;10.82;85.94;95597.14;107005;1279;22551;-87
2023/11/14 11:16:14;;;;;;;6.90;1.90;;;;;;;10.86;85.01;95587.61;107154;1275;23588;-87
2023/11/14 11:18:42;;;;;;;8.00;2.00;;;;;;;10.87;85.19;95580.38;107074;1277;139194;-86